Heisdorf-sur-Alzette, Luxembourg
Current Conditions -  °F | °C
As of 6:50 PM on Friday 31 Oct 2014 (Local Time) from ELLX Reporting Station
Clear Clear  
Wind Chill: 54°   Ceiling: Unl
Heat Index: 54°   Visibility: 2.5mi
Dew Point: 52°   Wind: 2mph
Humidity: 94%   Direction: 140°SE
Pressure: 30.24"   Gusts: NA
Location:  49.67°N, 6.14°E
Report Text: ELLX 311750Z 14002KT 4000 NSC 12/11 Q1024 NOSIG
Loading
Personal Weather Stations






























Interactive Weather Map
Tropical Storm Tracking
New forecast layout! Learn more

10-Day Weather Forecast

Advertisements
Track Severe Weather on mobile